createdAt,value
2023-05-19T08:32:05.766Z,16.73
2023-05-19T08:35:08.429Z,16.95
2023-05-19T08:38:09.969Z,17.41
2023-05-19T08:41:11.490Z,17.74
2023-05-19T08:44:13.108Z,17.56
2023-05-19T08:47:15.342Z,17.18
2023-05-19T08:50:21.332Z,17.31
2023-05-19T08:53:34.926Z,17.50
2023-05-19T08:56:38.043Z,17.70
2023-05-19T08:59:41.689Z,17.59
2023-05-19T09:02:50.783Z,17.19
2023-05-19T09:06:02.736Z,17.05
2023-05-19T09:09:04.452Z,17.02
2023-05-19T09:12:06.414Z,17.21
2023-05-19T09:15:09.843Z,17.67
2023-05-19T09:18:13.004Z,18.00
2023-05-19T09:21:14.737Z,17.92
2023-05-19T09:24:16.676Z,17.99
2023-05-19T09:27:23.248Z,18.36
2023-05-19T09:30:24.914Z,18.50
2023-05-19T09:33:26.996Z,18.27
2023-05-19T09:36:29.862Z,18.19
2023-05-19T09:39:32.731Z,17.94
2023-05-19T09:42:37.309Z,17.87
2023-05-19T09:45:38.791Z,18.12
2023-05-19T09:48:40.335Z,18.19
2023-05-19T09:51:41.923Z,18.60
2023-05-19T09:54:43.518Z,18.90
2023-05-19T09:57:45.294Z,19.01
2023-05-19T10:00:47.761Z,19.02
2023-05-19T10:03:49.567Z,19.17
2023-05-19T10:06:54.038Z,18.95
2023-05-19T10:09:57.944Z,18.89
2023-05-19T10:13:01.207Z,18.66
2023-05-19T10:16:06.041Z,18.82
2023-05-19T10:19:09.022Z,18.66
2023-05-19T10:22:10.979Z,18.46
2023-05-19T10:25:15.197Z,18.13
2023-05-19T10:28:21.141Z,17.89
2023-05-19T10:31:24.340Z,17.84
2023-05-19T10:34:50.547Z,17.99
2023-05-19T10:37:58.089Z,18.03
2023-05-19T10:41:24.411Z,17.87
2023-05-19T10:44:49.203Z,17.97
2023-05-19T10:47:51.653Z,18.11
2023-05-19T10:50:54.999Z,18.35
2023-05-19T10:53:58.677Z,18.56
2023-05-19T10:57:00.653Z,18.37
2023-05-19T11:00:28.210Z,18.29
2023-05-19T11:06:36.419Z,18.61
2023-05-19T11:09:41.260Z,19.06
2023-05-19T11:12:45.543Z,19.13
2023-05-19T11:15:47.062Z,19.31
2023-05-19T11:18:50.480Z,19.22
2023-05-19T11:21:55.011Z,19.59
2023-05-19T11:24:57.432Z,19.77
2023-05-19T11:27:59.934Z,19.74
2023-05-19T11:31:02.515Z,19.80
2023-05-19T11:34:06.783Z,19.68
2023-05-19T11:37:09.146Z,19.70
2023-05-19T11:40:13.757Z,19.82
2023-05-19T11:43:16.720Z,19.77
2023-05-19T11:46:18.473Z,19.81
2023-05-19T11:49:20.133Z,19.90
2023-05-19T11:52:23.209Z,19.83
2023-05-19T11:55:24.879Z,19.99
2023-05-19T11:58:37.045Z,20.29
2023-05-19T12:01:38.643Z,20.19
2023-05-19T12:04:40.199Z,19.84
2023-05-19T12:07:43.203Z,19.95
2023-05-19T12:10:48.983Z,19.83
2023-05-19T12:13:54.504Z,19.80
2023-05-19T12:16:56.212Z,19.71
2023-05-19T12:19:58.322Z,19.61
2023-05-19T12:23:01.112Z,19.77
2023-05-19T12:26:02.798Z,19.85
2023-05-19T12:29:06.601Z,19.90
2023-05-19T12:32:09.368Z,20.09
2023-05-19T12:35:11.614Z,20.08
2023-05-19T12:38:14.408Z,19.76
2023-05-19T12:41:17.369Z,19.61
2023-05-19T12:44:18.836Z,19.73
2023-05-19T12:47:21.078Z,19.87
2023-05-19T12:50:30.048Z,20.06
2023-05-19T12:53:33.195Z,20.33
2023-05-19T12:56:34.705Z,20.41
2023-05-19T12:59:38.818Z,20.19
2023-05-19T13:02:57.570Z,20.39
2023-05-19T13:05:59.811Z,20.41
2023-05-19T13:09:01.426Z,19.87
2023-05-19T13:12:04.717Z,19.41
2023-05-19T13:15:07.090Z,19.20
2023-05-19T13:18:10.570Z,19.06
2023-05-19T13:21:12.164Z,18.93
2023-05-19T13:24:13.994Z,18.70
2023-05-19T13:27:15.856Z,18.79
2023-05-19T13:30:18.355Z,18.85
2023-05-19T13:33:19.870Z,19.03
2023-05-19T13:36:21.558Z,19.05
2023-05-19T13:39:23.104Z,19.11
2023-05-19T13:42:24.712Z,19.18
2023-05-19T13:45:26.561Z,19.22
2023-05-19T13:48:28.094Z,18.95
2023-05-19T13:51:29.627Z,18.92
2023-05-19T13:54:31.183Z,18.98
2023-05-19T13:57:33.119Z,18.98
2023-05-19T14:00:36.336Z,18.84
2023-05-19T14:03:38.128Z,18.63
2023-05-19T14:06:39.856Z,18.62
2023-05-19T14:09:41.341Z,18.71
2023-05-19T14:13:06.454Z,18.84
2023-05-19T14:16:05.179Z,18.89
2023-05-19T14:19:07.112Z,18.78
2023-05-19T14:22:08.863Z,18.39
2023-05-19T14:25:10.603Z,18.21
2023-05-19T14:28:12.210Z,17.93
2023-05-19T14:31:14.805Z,18.02
2023-05-19T14:34:17.953Z,18.14
2023-05-19T14:37:20.207Z,18.31
2023-05-19T14:40:21.772Z,18.14
2023-05-19T14:43:23.355Z,18.08
2023-05-19T14:46:25.016Z,17.94
2023-05-19T14:49:26.569Z,17.88
2023-05-19T14:52:28.040Z,18.03
2023-05-19T14:55:29.700Z,18.11
2023-05-19T14:58:31.250Z,18.00
2023-05-19T15:01:32.831Z,18.08
2023-05-19T15:04:34.339Z,18.16
2023-05-19T15:07:36.128Z,18.07
2023-05-19T15:10:37.699Z,17.84
2023-05-19T15:13:39.229Z,17.80
2023-05-19T15:16:40.841Z,17.86
2023-05-19T15:19:42.995Z,17.88
2023-05-19T15:22:44.529Z,17.99
2023-05-19T15:25:46.084Z,17.93
2023-05-19T15:28:47.625Z,17.91
2023-05-19T15:31:52.557Z,17.69
2023-05-19T15:34:54.123Z,17.41
2023-05-19T15:37:55.691Z,17.30
2023-05-19T15:40:57.226Z,17.15
2023-05-19T15:44:02.486Z,17.04
2023-05-19T15:47:04.120Z,16.89
2023-05-19T15:50:06.148Z,16.71
2023-05-19T15:53:08.870Z,16.67
2023-05-19T15:56:10.702Z,16.48
2023-05-19T15:59:12.266Z,16.47
2023-05-19T16:02:21.391Z,16.47
2023-05-19T16:05:23.105Z,16.48
2023-05-19T16:08:25.079Z,16.44
2023-05-19T16:11:26.836Z,16.45
2023-05-19T16:14:31.944Z,16.32
2023-05-19T16:17:33.610Z,16.25
2023-05-19T16:20:35.457Z,16.23
2023-05-19T16:23:37.160Z,16.23
2023-05-19T16:26:39.038Z,16.14
2023-05-19T16:29:40.988Z,15.95
2023-05-19T16:32:42.956Z,15.76
2023-05-19T16:35:44.533Z,15.66
2023-05-19T16:38:46.123Z,15.70
2023-05-19T16:41:47.594Z,15.74
2023-05-19T16:44:49.135Z,15.78
2023-05-19T16:47:50.745Z,15.76
2023-05-19T16:50:52.365Z,15.75
2023-05-19T16:53:53.844Z,15.67
2023-05-19T16:56:55.426Z,15.59
2023-05-19T16:59:57.036Z,15.71
2023-05-19T17:02:58.697Z,15.68
2023-05-19T17:06:00.944Z,15.71
2023-05-19T17:09:02.606Z,15.70
2023-05-19T17:12:04.498Z,15.70
2023-05-19T17:15:06.526Z,15.68
2023-05-19T17:18:08.102Z,15.64
2023-05-19T17:21:09.757Z,15.57
2023-05-19T17:24:11.375Z,15.48
2023-05-19T17:27:12.954Z,15.48
2023-05-19T17:30:14.511Z,15.44
2023-05-19T17:33:16.056Z,15.30
2023-05-19T17:36:17.618Z,15.11
2023-05-19T17:39:20.149Z,15.00
2023-05-19T17:42:21.683Z,14.87
2023-05-19T17:45:23.157Z,14.77
2023-05-19T17:48:25.872Z,14.68
2023-05-19T17:51:28.030Z,14.61
2023-05-19T17:54:29.782Z,14.63
2023-05-19T17:57:33.478Z,14.59
2023-05-19T18:00:35.428Z,14.55
2023-05-19T18:03:37.506Z,14.44
2023-05-19T18:06:43.193Z,14.40
2023-05-19T18:09:50.548Z,14.32
2023-05-19T18:12:52.084Z,14.27
2023-05-19T18:15:53.663Z,14.29
2023-05-19T18:18:55.218Z,14.25
2023-05-19T18:21:56.734Z,14.24
2023-05-19T18:24:58.412Z,14.22
2023-05-19T18:27:59.907Z,14.18
2023-05-19T18:31:03.609Z,14.11
2023-05-19T18:34:05.148Z,14.11
2023-05-19T18:37:06.826Z,14.13
2023-05-19T18:40:08.860Z,14.15
2023-05-19T18:43:10.386Z,14.12
2023-05-19T18:46:13.328Z,14.06
2023-05-19T18:49:15.699Z,14.00
2023-05-19T18:52:18.959Z,13.98
2023-05-19T18:55:20.632Z,13.96
2023-05-19T18:58:22.247Z,13.97
2023-05-19T19:01:23.981Z,13.89
2023-05-19T19:04:25.614Z,13.85
2023-05-19T19:07:27.790Z,13.85
2023-05-19T19:10:29.709Z,13.76
2023-05-19T19:13:31.222Z,13.71
2023-05-19T19:16:33.954Z,13.64
2023-05-19T19:19:35.722Z,13.63
2023-05-19T19:22:37.263Z,13.61
2023-05-19T19:25:38.753Z,13.63
2023-05-19T19:28:40.404Z,13.63
2023-05-19T19:31:42.148Z,13.62
2023-05-19T19:34:43.694Z,13.61
2023-05-19T19:37:46.879Z,13.54
2023-05-19T19:40:51.357Z,13.50
2023-05-19T19:43:53.150Z,13.51
2023-05-19T19:46:54.860Z,13.50
2023-05-19T19:49:56.481Z,13.49
2023-05-19T19:52:58.257Z,13.35
2023-05-19T19:56:01.395Z,13.25
2023-05-19T19:59:03.069Z,13.21
2023-05-19T20:02:04.798Z,13.19
2023-05-19T20:05:06.952Z,13.13
2023-05-19T20:08:08.537Z,13.03
2023-05-19T20:11:10.144Z,12.92
2023-05-19T20:14:11.653Z,12.91
2023-05-19T20:17:13.317Z,12.85
2023-05-19T20:20:14.944Z,12.71
2023-05-19T20:23:16.631Z,12.67
2023-05-19T20:26:18.396Z,12.71
2023-05-19T20:29:20.062Z,12.70
2023-05-19T20:32:21.616Z,12.70
2023-05-19T20:35:23.643Z,12.70
2023-05-19T20:38:25.402Z,12.66
2023-05-19T20:41:27.465Z,12.60
2023-05-19T20:44:29.101Z,12.54
2023-05-19T20:47:30.908Z,12.56
2023-05-19T20:50:32.592Z,12.52
2023-05-19T20:53:34.343Z,12.46
2023-05-19T20:56:35.940Z,12.33
2023-05-19T20:59:37.872Z,12.10
2023-05-19T21:02:43.588Z,12.01
2023-05-19T21:05:45.994Z,12.03
2023-05-19T21:08:47.504Z,12.00
2023-05-19T21:11:49.020Z,11.96
2023-05-19T21:14:51.526Z,11.88
2023-05-19T21:17:53.059Z,11.87
2023-05-19T21:20:54.613Z,11.92
2023-05-19T21:23:56.685Z,11.88
2023-05-19T21:26:58.197Z,11.79
2023-05-19T21:30:00.013Z,11.64
2023-05-19T21:33:01.704Z,11.65
2023-05-19T21:36:03.383Z,11.57
2023-05-19T21:39:04.879Z,11.32
2023-05-19T21:42:06.427Z,11.38
2023-05-19T21:45:10.422Z,11.39
2023-05-19T21:48:12.137Z,11.32
2023-05-19T21:51:13.717Z,11.21
2023-05-19T21:54:15.730Z,11.04
2023-05-19T21:57:17.842Z,10.91
2023-05-19T22:00:19.394Z,10.83
2023-05-19T22:03:21.854Z,10.66
2023-05-19T22:06:23.597Z,10.77
2023-05-19T22:09:25.518Z,10.78
2023-05-19T22:12:27.036Z,10.74
2023-05-19T22:15:28.573Z,10.62
2023-05-19T22:18:30.126Z,10.59
2023-05-19T22:21:32.006Z,10.39
2023-05-19T22:24:33.580Z,10.35
2023-05-19T22:27:35.195Z,10.32
2023-05-19T22:30:40.046Z,10.28
2023-05-19T22:33:42.620Z,10.24
2023-05-19T22:36:45.964Z,10.36
2023-05-19T22:39:50.556Z,10.37
2023-05-19T22:42:52.312Z,10.47
2023-05-19T22:45:53.814Z,10.56
2023-05-19T22:48:55.343Z,10.63
2023-05-19T22:51:56.845Z,10.67
2023-05-19T22:54:58.361Z,10.63
2023-05-19T22:57:59.902Z,10.65
2023-05-19T23:01:01.569Z,10.68
2023-05-19T23:04:03.658Z,10.70
2023-05-19T23:07:05.337Z,10.70
2023-05-19T23:10:07.517Z,10.65
2023-05-19T23:13:10.184Z,10.67
2023-05-19T23:16:11.651Z,10.67
2023-05-19T23:19:13.308Z,10.65
2023-05-19T23:22:14.870Z,10.68
2023-05-19T23:25:16.461Z,10.70
2023-05-19T23:28:18.127Z,10.72
2023-05-19T23:31:19.713Z,10.68
2023-05-19T23:34:21.305Z,10.68
2023-05-19T23:37:22.919Z,10.70
2023-05-19T23:40:24.467Z,10.68
2023-05-19T23:43:26.051Z,10.71
2023-05-19T23:46:27.663Z,10.75
2023-05-19T23:49:29.275Z,10.75
2023-05-19T23:52:31.760Z,10.77
2023-05-19T23:55:33.972Z,10.78
2023-05-19T23:58:35.708Z,10.80
